Time;durP1;ratioP1;P1;durP2;ratioP2;P2;SDS_P1;SDS_P2;PMS_P1;PMS_P2;Temp;Humidity;BMP_temperature;BMP_pressure;BME280_temperature;BME280_humidity;BME280_pressure;Samples;Min_cycle;Max_cycle;Signal;HPM_P1;HPM_P2
2022/03/29 00:02:01;;;;;;;31.13;14.68;;;;;;;;;;5113126;28;20019;-45
2022/03/29 00:04:28;;;;;;;31.42;13.77;;;;;;;;;;5113770;28;20073;-46
2022/03/29 00:06:54;;;;;;;33.05;14.52;;;;;;;;;;5114538;28;20024;-45
2022/03/29 00:09:23;;;;;;;38.42;17.25;;;;;;;;;;5117657;28;20022;-46
2022/03/29 00:12:09;;;;;;;36.63;16.45;;;;;;;;;;5117650;28;20024;-46
2022/03/29 00:14:35;;;;;;;34.92;15.45;;;;;;;;;;5117265;28;20023;-46
2022/03/29 00:17:02;;;;;;;32.70;16.23;;;;;;;;;;5117042;28;20035;-44
2022/03/29 00:19:28;;;;;;;41.88;17.60;;;;;;;;;;5117364;28;20479;-44
2022/03/29 00:21:54;;;;;;;25.73;13.77;;;;;;;;;;5117412;28;20399;-46
2022/03/29 00:24:20;;;;;;;27.38;13.30;;;;;;;;;;5117644;28;20148;-46
2022/03/29 00:26:46;;;;;;;20.70;10.73;;;;;;;;;;5117389;28;20043;-44
2022/03/29 00:29:14;;;;;;;28.48;12.93;;;;;;;;;;5117155;28;20024;-45
2022/03/29 00:31:40;;;;;;;24.50;10.15;;;;;;;;;;5117214;28;20033;-51
2022/03/29 00:34:06;;;;;;;19.65;9.73;;;;;;;;;;5117040;28;20047;-49
2022/03/29 00:36:33;;;;;;;25.50;10.70;;;;;;;;;;5117323;28;20114;-49
2022/03/29 00:38:59;;;;;;;20.45;10.93;;;;;;;;;;5117090;28;20467;-46
2022/03/29 00:41:25;;;;;;;20.40;11.00;;;;;;;;;;5098128;28;20122;-44
2022/03/29 00:43:51;;;;;;;30.10;12.20;;;;;;;;;;5116882;28;20020;-52
2022/03/29 00:46:17;;;;;;;35.22;15.85;;;;;;;;;;5116838;28;20051;-55
2022/03/29 00:48:44;;;;;;;31.20;14.77;;;;;;;;;;5116440;28;20040;-46
2022/03/29 00:51:10;;;;;;;31.85;15.45;;;;;;;;;;5116787;28;20027;-44
2022/03/29 00:53:36;;;;;;;30.20;14.07;;;;;;;;;;5116731;28;20027;-44
2022/03/29 00:56:03;;;;;;;34.78;15.80;;;;;;;;;;5116542;28;20088;-46
2022/03/29 00:58:29;;;;;;;33.47;13.93;;;;;;;;;;5116437;28;20019;-45
2022/03/29 01:00:58;;;;;;;31.13;15.52;;;;;;;;;;5116403;28;20387;-45
2022/03/29 01:03:24;;;;;;;30.48;14.43;;;;;;;;;;5116464;28;20026;-46
2022/03/29 01:05:50;;;;;;;33.55;15.35;;;;;;;;;;5116700;28;20103;-45
2022/03/29 01:08:17;;;;;;;29.55;15.10;;;;;;;;;;5116457;28;20077;-46
2022/03/29 01:10:47;;;;;;;30.48;12.95;;;;;;;;;;5116590;28;20020;-45
2022/03/29 01:13:13;;;;;;;30.35;13.60;;;;;;;;;;5116413;28;20034;-45
2022/03/29 01:15:41;;;;;;;27.65;11.52;;;;;;;;;;5116141;28;20027;-48
2022/03/29 01:18:10;;;;;;;28.52;13.00;;;;;;;;;;5115603;28;20020;-45
2022/03/29 01:20:37;;;;;;;28.70;15.55;;;;;;;;;;5116436;28;20512;-48
2022/03/29 01:23:03;;;;;;;33.92;17.00;;;;;;;;;;5116191;28;20020;-51
2022/03/29 01:25:34;;;;;;;42.45;16.67;;;;;;;;;;5116157;28;20031;-45
2022/03/29 01:28:01;;;;;;;34.70;16.38;;;;;;;;;;5116138;28;20024;-46
2022/03/29 01:30:28;;;;;;;33.10;16.15;;;;;;;;;;5115883;28;20098;-42
2022/03/29 01:32:54;;;;;;;34.58;16.35;;;;;;;;;;5115902;28;20394;-48
2022/03/29 01:35:21;;;;;;;29.65;15.25;;;;;;;;;;5116011;28;20024;-49
2022/03/29 01:37:54;;;;;;;33.53;15.55;;;;;;;;;;5116030;28;20019;-48
2022/03/29 01:40:21;;;;;;;32.58;16.30;;;;;;;;;;5116124;28;20034;-52
2022/03/29 01:42:54;;;;;;;33.45;15.98;;;;;;;;;;5115856;28;20059;-44
2022/03/29 01:45:21;;;;;;;33.67;15.80;;;;;;;;;;5097496;28;20042;-46
2022/03/29 01:47:47;;;;;;;34.70;15.85;;;;;;;;;;5115601;28;20032;-45
2022/03/29 01:50:16;;;;;;;35.78;16.27;;;;;;;;;;5115577;28;20078;-45
2022/03/29 01:52:47;;;;;;;38.78;17.23;;;;;;;;;;5115508;28;20024;-50
2022/03/29 01:55:14;;;;;;;33.70;15.60;;;;;;;;;;5115617;28;20027;-45
2022/03/29 01:57:40;;;;;;;26.05;13.55;;;;;;;;;;5115183;28;20396;-44
2022/03/29 02:02:53;;;;;;;26.63;12.48;;;;;;;;;;5115601;28;20038;-44
2022/03/29 02:05:21;;;;;;;24.05;11.93;;;;;;;;;;5115799;28;20019;-46
2022/03/29 02:07:48;;;;;;;26.27;11.98;;;;;;;;;;5115338;28;20023;-47
2022/03/29 02:10:17;;;;;;;23.73;10.90;;;;;;;;;;5115211;28;20394;-45
2022/03/29 02:12:46;;;;;;;22.67;10.80;;;;;;;;;;5115354;28;20029;-47
2022/03/29 02:15:13;;;;;;;21.25;10.45;;;;;;;;;;5115111;28;20369;-45
2022/03/29 02:17:39;;;;;;;18.48;10.13;;;;;;;;;;5114774;28;20432;-44
2022/03/29 02:20:06;;;;;;;20.77;9.35;;;;;;;;;;5114507;28;20070;-45
2022/03/29 02:22:32;;;;;;;17.05;9.23;;;;;;;;;;5115263;28;20382;-45
2022/03/29 02:25:00;;;;;;;17.88;8.60;;;;;;;;;;5115200;28;20051;-44
2022/03/29 02:27:27;;;;;;;18.40;9.80;;;;;;;;;;5114937;28;20023;-43
2022/03/29 02:29:53;;;;;;;18.58;9.38;;;;;;;;;;5114016;28;20027;-48
2022/03/29 02:32:19;;;;;;;16.15;8.50;;;;;;;;;;5115202;28;20367;-43
2022/03/29 02:34:45;;;;;;;17.48;8.80;;;;;;;;;;5114938;28;20019;-44
2022/03/29 02:37:14;;;;;;;21.95;11.20;;;;;;;;;;5114933;28;20032;-45
2022/03/29 02:39:41;;;;;;;20.23;8.98;;;;;;;;;;5114640;28;20024;-45
2022/03/29 02:42:09;;;;;;;26.83;11.35;;;;;;;;;;5114690;28;20467;-44
2022/03/29 02:44:36;;;;;;;19.02;9.85;;;;;;;;;;5114868;28;20488;-45
2022/03/29 02:47:02;;;;;;;21.38;10.98;;;;;;;;;;5114600;28;20035;-45
2022/03/29 02:49:28;;;;;;;23.35;11.40;;;;;;;;;;5114260;28;20116;-44
2022/03/29 02:51:54;;;;;;;27.52;11.35;;;;;;;;;;5114444;28;20022;-44
2022/03/29 02:54:20;;;;;;;28.77;13.32;;;;;;;;;;5114456;28;20388;-44
2022/03/29 02:56:47;;;;;;;27.15;12.07;;;;;;;;;;5114142;28;20035;-44
2022/03/29 02:59:15;;;;;;;21.27;12.45;;;;;;;;;;5114225;28;20456;-45
2022/03/29 03:01:41;;;;;;;24.42;11.07;;;;;;;;;;5114477;28;20031;-44
2022/03/29 03:04:13;;;;;;;23.58;10.68;;;;;;;;;;5113974;28;20024;-44
2022/03/29 03:06:39;;;;;;;;;;;;;;;;;;5114562;28;20079;-44
2022/03/29 03:09:05;;;;;;;22.73;11.02;;;;;;;;;;5114151;28;19994;-45
2022/03/29 03:11:31;;;;;;;20.70;10.98;;;;;;;;;;5114508;28;20034;-44
2022/03/29 03:13:57;;;;;;;21.15;10.15;;;;;;;;;;5114164;28;20026;-44
2022/03/29 03:16:24;;;;;;;16.67;9.57;;;;;;;;;;5113940;28;20054;-44
2022/03/29 03:18:50;;;;;;;23.00;10.30;;;;;;;;;;5113854;28;20023;-45
2022/03/29 03:21:16;;;;;;;20.67;9.13;;;;;;;;;;5114263;28;20118;-45
2022/03/29 03:23:42;;;;;;;21.98;9.93;;;;;;;;;;5114028;28;20376;-45
2022/03/29 03:26:08;;;;;;;19.80;9.32;;;;;;;;;;5113926;28;20019;-45
2022/03/29 03:28:34;;;;;;;18.55;9.82;;;;;;;;;;5113998;28;20024;-45
2022/03/29 03:31:01;;;;;;;26.90;10.75;;;;;;;;;;5113772;28;20095;-44
2022/03/29 03:33:27;;;;;;;25.50;10.35;;;;;;;;;;5113789;28;20023;-43
2022/03/29 03:35:53;;;;;;;24.98;10.30;;;;;;;;;;5095596;28;20032;-43
2022/03/29 03:38:19;;;;;;;23.67;10.23;;;;;;;;;;5113892;28;20371;-42
2022/03/29 03:40:45;;;;;;;24.23;12.00;;;;;;;;;;5113449;28;20034;-44
2022/03/29 03:43:11;;;;;;;25.05;10.60;;;;;;;;;;5113740;28;20019;-43
2022/03/29 03:45:37;;;;;;;24.83;12.23;;;;;;;;;;5113645;28;20024;-43
2022/03/29 03:48:04;;;;;;;35.20;14.48;;;;;;;;;;5113713;28;20020;-47
2022/03/29 03:50:30;;;;;;;31.58;15.18;;;;;;;;;;5113360;28;20407;-45
2022/03/29 03:52:57;;;;;;;27.00;14.25;;;;;;;;;;5113620;28;20069;-44
2022/03/29 03:55:23;;;;;;;36.22;15.88;;;;;;;;;;5113534;28;20361;-45
2022/03/29 03:57:50;;;;;;;32.10;14.52;;;;;;;;;;5113340;28;20111;-46
2022/03/29 04:00:16;;;;;;;37.10;17.05;;;;;;;;;;5113677;28;20019;-45
2022/03/29 04:02:42;;;;;;;31.80;14.57;;;;;;;;;;5113364;28;20030;-45
2022/03/29 04:05:12;;;;;;;27.45;14.30;;;;;;;;;;5113556;28;20094;-44
2022/03/29 04:07:38;;;;;;;36.47;13.77;;;;;;;;;;5113396;28;20020;-45
2022/03/29 04:10:07;;;;;;;34.35;15.18;;;;;;;;;;5113240;28;20522;-44
2022/03/29 04:12:33;;;;;;;30.05;14.45;;;;;;;;;;5113441;28;20027;-45
2022/03/29 04:15:00;;;;;;;35.80;16.77;;;;;;;;;;5113394;28;20027;-45
2022/03/29 04:17:26;;;;;;;40.00;17.83;;;;;;;;;;5113474;28;20035;-44
2022/03/29 04:19:52;;;;;;;39.03;17.85;;;;;;;;;;5113301;28;20028;-46
2022/03/29 04:22:18;;;;;;;44.88;18.63;;;;;;;;;;5113177;28;20032;-44
2022/03/29 04:24:50;;;;;;;39.08;17.60;;;;;;;;;;5113168;28;20156;-46
2022/03/29 04:27:16;;;;;;;35.25;16.70;;;;;;;;;;5113374;28;20023;-45
2022/03/29 04:29:42;;;;;;;34.60;15.48;;;;;;;;;;5113307;28;20020;-44
2022/03/29 04:32:09;;;;;;;27.40;13.38;;;;;;;;;;5113612;28;20356;-45
2022/03/29 04:34:35;;;;;;;24.83;12.20;;;;;;;;;;5113199;28;20016;-45
2022/03/29 04:37:01;;;;;;;22.42;10.70;;;;;;;;;;5113125;28;20031;-45
2022/03/29 04:39:27;;;;;;;35.75;13.02;;;;;;;;;;5113166;28;20020;-44
2022/03/29 04:41:53;;;;;;;30.33;12.68;;;;;;;;;;5113293;28;20111;-45
2022/03/29 04:44:24;;;;;;;30.52;12.57;;;;;;;;;;5113334;28;20084;-46
2022/03/29 04:46:50;;;;;;;33.55;12.38;;;;;;;;;;5113128;28;20032;-45
2022/03/29 04:49:16;;;;;;;24.17;12.10;;;;;;;;;;5113001;28;20104;-47
2022/03/29 04:51:42;;;;;;;33.20;13.88;;;;;;;;;;5113021;28;20045;-44
2022/03/29 04:54:09;;;;;;;34.45;15.38;;;;;;;;;;5115632;28;20050;-47
2022/03/29 04:56:35;;;;;;;34.33;15.55;;;;;;;;;;5116628;28;20039;-43
2022/03/29 04:59:01;;;;;;;30.75;14.65;;;;;;;;;;5116730;28;20020;-49
2022/03/29 05:01:27;;;;;;;30.80;14.32;;;;;;;;;;5116717;28;20479;-46
2022/03/29 05:03:54;;;;;;;23.52;13.82;;;;;;;;;;5116569;28;20020;-47
2022/03/29 05:06:20;;;;;;;23.60;12.65;;;;;;;;;;5097772;28;20055;-45
2022/03/29 05:08:46;;;;;;;32.05;14.50;;;;;;;;;;5116501;28;20023;-46
2022/03/29 05:11:12;;;;;;;30.40;16.05;;;;;;;;;;5116850;28;20544;-44
2022/03/29 05:13:38;;;;;;;37.13;17.42;;;;;;;;;;5116519;28;20030;-48
2022/03/29 05:16:05;;;;;;;29.58;15.55;;;;;;;;;;5116260;28;20015;-47
2022/03/29 05:18:31;;;;;;;29.35;15.27;;;;;;;;;;5116017;28;20024;-44
2022/03/29 05:20:59;;;;;;;32.40;17.17;;;;;;;;;;5116133;28;20034;-45
2022/03/29 05:23:25;;;;;;;62.92;28.52;;;;;;;;;;5116415;28;20027;-46
2022/03/29 05:25:51;;;;;;;63.97;31.88;;;;;;;;;;5116427;28;20016;-46
2022/03/29 05:28:17;;;;;;;67.95;29.23;;;;;;;;;;5116268;28;20034;-49
2022/03/29 05:30:43;;;;;;;62.60;24.85;;;;;;;;;;5116080;28;20028;-46
2022/03/29 05:33:15;;;;;;;68.45;26.92;;;;;;;;;;5116016;28;20110;-46
2022/03/29 05:35:43;;;;;;;59.97;23.77;;;;;;;;;;5115711;28;20027;-51
2022/03/29 05:38:09;;;;;;;56.05;25.50;;;;;;;;;;5115667;28;20119;-47
2022/03/29 05:40:35;;;;;;;45.80;25.35;;;;;;;;;;5115850;28;20015;-47
2022/03/29 05:43:01;;;;;;;39.53;21.08;;;;;;;;;;5115816;28;20073;-47
2022/03/29 05:45:29;;;;;;;36.83;19.80;;;;;;;;;;5116100;28;20452;-45
2022/03/29 05:50:40;;;;;;;29.33;15.38;;;;;;;;;;5115920;28;20078;-57
2022/03/29 05:53:06;;;;;;;28.10;15.70;;;;;;;;;;5115706;28;20030;-49
2022/03/29 05:55:32;;;;;;;30.70;15.95;;;;;;;;;;5116242;28;20020;-52
2022/03/29 05:57:58;;;;;;;26.88;16.05;;;;;;;;;;5115794;28;20039;-48
2022/03/29 06:00:29;;;;;;;25.08;15.00;;;;;;;;;;5115623;28;20027;-47
2022/03/29 06:02:58;;;;;;;25.75;15.02;;;;;;;;;;5115433;28;20507;-46
2022/03/29 06:05:24;;;;;;;23.15;14.40;;;;;;;;;;5114172;28;20379;-48
2022/03/29 06:07:50;;;;;;;25.52;15.15;;;;;;;;;;5097454;28;20074;-49
2022/03/29 06:10:16;;;;;;;28.55;15.43;;;;;;;;;;5115321;28;20107;-47
2022/03/29 06:12:46;;;;;;;22.60;14.10;;;;;;;;;;5096933;28;20422;-47
2022/03/29 06:15:13;;;;;;;34.03;16.05;;;;;;;;;;5115238;28;20042;-48
2022/03/29 06:17:39;;;;;;;31.67;15.27;;;;;;;;;;5115279;28;20089;-47
2022/03/29 06:20:06;;;;;;;27.05;15.50;;;;;;;;;;5114975;28;20036;-47
2022/03/29 06:22:34;;;;;;;26.67;15.05;;;;;;;;;;5115099;28;20507;-47
2022/03/29 06:25:00;;;;;;;25.50;15.45;;;;;;;;;;5114919;28;20035;-47
2022/03/29 06:27:26;;;;;;;24.08;13.98;;;;;;;;;;5115085;28;20468;-49
2022/03/29 06:29:56;;;;;;;27.33;15.80;;;;;;;;;;5114701;28;20031;-47
2022/03/29 06:32:23;;;;;;;25.33;15.38;;;;;;;;;;5114784;28;20378;-46
2022/03/29 06:34:49;;;;;;;32.40;15.18;;;;;;;;;;5114886;28;20085;-47
2022/03/29 06:37:15;;;;;;;30.33;16.08;;;;;;;;;;5114745;28;20436;-50
2022/03/29 06:39:41;;;;;;;33.00;16.90;;;;;;;;;;5114700;28;20054;-48
2022/03/29 06:42:08;;;;;;;32.83;17.02;;;;;;;;;;5114835;28;20080;-47
2022/03/29 06:44:34;;;;;;;27.73;15.90;;;;;;;;;;5114639;28;20012;-57
2022/03/29 06:47:01;;;;;;;34.95;19.48;;;;;;;;;;5114726;28;20023;-53
2022/03/29 06:49:28;;;;;;;49.15;21.77;;;;;;;;;;5114327;28;20051;-46
2022/03/29 06:51:54;;;;;;;45.03;20.92;;;;;;;;;;5114416;28;20073;-50
2022/03/29 06:54:20;;;;;;;37.72;22.70;;;;;;;;;;5114739;28;20023;-54
2022/03/29 06:56:49;;;;;;;38.72;21.73;;;;;;;;;;5114495;28;20071;-46
2022/03/29 06:59:15;;;;;;;29.60;17.70;;;;;;;;;;5114490;28;20024;-46
2022/03/29 07:01:44;;;;;;;29.50;17.98;;;;;;;;;;5114254;28;20026;-47
2022/03/29 07:04:10;;;;;;;36.58;17.25;;;;;;;;;;5114194;28;20508;-45
2022/03/29 07:06:36;;;;;;;38.17;23.15;;;;;;;;;;5114083;28;20020;-44
2022/03/29 07:11:47;;;;;;;35.05;19.75;;;;;;;;;;5114455;28;20115;-49
2022/03/29 07:14:18;;;;;;;49.15;24.33;;;;;;;;;;5113949;28;20051;-46
2022/03/29 07:16:45;;;;;;;35.75;18.58;;;;;;;;;;5113853;28;20036;-44
2022/03/29 07:19:11;;;;;;;36.13;20.52;;;;;;;;;;5113735;28;20069;-48
2022/03/29 07:21:39;;;;;;;32.88;18.30;;;;;;;;;;5113799;28;20063;-47
2022/03/29 07:24:09;;;;;;;60.60;25.35;;;;;;;;;;5113901;28;20019;-48
2022/03/29 07:26:36;;;;;;;41.35;22.63;;;;;;;;;;5113820;28;20106;-48
2022/03/29 07:29:03;;;;;;;46.90;26.52;;;;;;;;;;5113716;28;20106;-50
2022/03/29 07:31:29;;;;;;;37.50;20.95;;;;;;;;;;5113770;28;20024;-47
2022/03/29 07:33:56;;;;;;;30.90;18.88;;;;;;;;;;5113766;28;20027;-51
2022/03/29 07:36:22;;;;;;;39.70;21.70;;;;;;;;;;5113659;28;20034;-47
2022/03/29 07:38:48;;;;;;;34.53;19.50;;;;;;;;;;5113936;28;20028;-47
2022/03/29 07:41:14;;;;;;;37.67;21.85;;;;;;;;;;5113640;28;20415;-48
2022/03/29 07:43:40;;;;;;;37.13;21.90;;;;;;;;;;5114298;28;20460;-47
2022/03/29 07:46:06;;;;;;;38.92;22.02;;;;;;;;;;5113850;28;20020;-48
2022/03/29 07:48:32;;;;;;;43.15;22.95;;;;;;;;;;5113735;28;20479;-48
2022/03/29 07:50:58;;;;;;;36.15;21.10;;;;;;;;;;5113665;28;20205;-47
2022/03/29 07:53:25;;;;;;;37.53;22.95;;;;;;;;;;5094968;28;20031;-48
2022/03/29 07:55:52;;;;;;;39.72;20.13;;;;;;;;;;5113660;28;20024;-48
2022/03/29 07:58:19;;;;;;;40.28;20.10;;;;;;;;;;5113416;28;20040;-50
2022/03/29 08:00:49;;;;;;;35.58;18.63;;;;;;;;;;5113465;28;20020;-55
2022/03/29 08:03:17;;;;;;;44.13;22.65;;;;;;;;;;5113654;28;20024;-47
2022/03/29 08:05:44;;;;;;;29.15;18.60;;;;;;;;;;5113525;28;20019;-49
2022/03/29 08:08:11;;;;;;;40.10;22.25;;;;;;;;;;5113422;28;20027;-48
2022/03/29 08:10:38;;;;;;;32.28;20.45;;;;;;;;;;5113581;28;20524;-51
2022/03/29 08:13:07;;;;;;;38.67;22.73;;;;;;;;;;5113407;28;20486;-56
2022/03/29 08:15:33;;;;;;;32.42;20.45;;;;;;;;;;5113257;28;20020;-46
2022/03/29 08:17:59;;;;;;;42.80;23.77;;;;;;;;;;5113318;28;20463;-51
2022/03/29 08:20:26;;;;;;;37.88;22.00;;;;;;;;;;5113320;28;20038;-54
2022/03/29 08:22:56;;;;;;;37.47;22.70;;;;;;;;;;5113195;28;20546;-51
2022/03/29 08:25:22;;;;;;;33.25;20.65;;;;;;;;;;5113364;28;20020;-48
2022/03/29 08:27:49;;;;;;;46.05;21.23;;;;;;;;;;5113991;28;20031;-51
2022/03/29 08:30:15;;;;;;;35.08;19.98;;;;;;;;;;5117238;28;20020;-48
2022/03/29 08:32:42;;;;;;;39.58;17.33;;;;;;;;;;5116992;28;20030;-48
2022/03/29 08:35:09;;;;;;;28.23;17.63;;;;;;;;;;5117075;28;20020;-46
2022/03/29 08:37:36;;;;;;;30.60;17.15;;;;;;;;;;5116844;28;20035;-47
2022/03/29 08:40:06;;;;;;;26.83;14.93;;;;;;;;;;5117098;28;20023;-45
2022/03/29 08:42:33;;;;;;;29.60;15.18;;;;;;;;;;5116825;28;20023;-53
2022/03/29 08:44:59;;;;;;;26.65;15.98;;;;;;;;;;5117226;28;20535;-53
2022/03/29 08:47:26;;;;;;;42.72;23.13;;;;;;;;;;5116825;28;20032;-49
2022/03/29 08:49:52;;;;;;;29.85;15.00;;;;;;;;;;5116655;28;20055;-46
2022/03/29 08:52:20;;;;;;;22.20;13.75;;;;;;;;;;5117038;28;20024;-53
2022/03/29 08:54:46;;;;;;;25.95;15.13;;;;;;;;;;5117200;28;20024;-55
2022/03/29 08:57:13;;;;;;;27.73;17.40;;;;;;;;;;5116679;28;20483;-56
2022/03/29 08:59:42;;;;;;;30.23;16.63;;;;;;;;;;5116525;28;20052;-49
2022/03/29 09:02:18;;;;;;;25.85;15.13;;;;;;;;;;5116492;28;20034;-49
2022/03/29 09:04:45;;;;;;;40.53;22.75;;;;;;;;;;5116655;28;20027;-47
2022/03/29 09:07:11;;;;;;;31.23;16.73;;;;;;;;;;5116549;28;20026;-56
2022/03/29 09:09:37;;;;;;;30.02;16.17;;;;;;;;;;5116755;28;20035;-53
2022/03/29 09:12:14;;;;;;;32.63;18.58;;;;;;;;;;5116376;28;20024;-48
2022/03/29 09:15:00;;;;;;;24.38;15.82;;;;;;;;;;5116226;28;20027;-49
2022/03/29 09:17:35;;;;;;;31.88;17.17;;;;;;;;;;5115965;28;20039;-47
2022/03/29 09:20:02;;;;;;;28.92;17.25;;;;;;;;;;5116291;28;20023;-50
2022/03/29 09:22:40;;;;;;;24.52;16.73;;;;;;;;;;5116120;28;20023;-46
2022/03/29 09:25:07;;;;;;;23.92;14.07;;;;;;;;;;5116132;28;20020;-46
2022/03/29 09:27:49;;;;;;;29.02;13.95;;;;;;;;;;5116284;28;20510;-46
2022/03/29 09:30:15;;;;;;;24.30;15.50;;;;;;;;;;5116265;28;20030;-46
2022/03/29 09:32:56;;;;;;;23.38;14.32;;;;;;;;;;5115949;28;20020;-45
2022/03/29 09:35:22;;;;;;;31.02;17.05;;;;;;;;;;5115817;28;20023;-47
2022/03/29 09:37:48;;;;;;;22.45;13.95;;;;;;;;;;5115593;28;20032;-45
2022/03/29 09:40:15;;;;;;;38.85;19.42;;;;;;;;;;5115534;28;20027;-46
2022/03/29 09:42:41;;;;;;;31.63;17.30;;;;;;;;;;5116182;28;20383;-50
2022/03/29 09:45:08;;;;;;;24.95;14.95;;;;;;;;;;5115826;28;20020;-48
2022/03/29 09:47:35;;;;;;;23.25;14.00;;;;;;;;;;5115914;28;20423;-48
2022/03/29 09:50:07;;;;;;;45.67;24.17;;;;;;;;;;5115527;28;20047;-46
2022/03/29 09:52:38;;;;;;;30.27;16.55;;;;;;;;;;5115491;28;20042;-49
2022/03/29 09:55:21;;;;;;;31.25;17.60;;;;;;;;;;5115706;28;20020;-47
2022/03/29 09:57:47;;;;;;;28.67;15.82;;;;;;;;;;5115439;28;20061;-47
2022/03/29 10:00:17;;;;;;;32.30;19.58;;;;;;;;;;5115582;28;20020;-46
2022/03/29 10:02:47;;;;;;;25.65;15.48;;;;;;;;;;5115865;28;20019;-46
2022/03/29 10:05:15;;;;;;;27.20;14.40;;;;;;;;;;5115257;28;20498;-46
2022/03/29 10:07:43;;;;;;;25.02;13.90;;;;;;;;;;5115501;28;20360;-46
2022/03/29 10:10:10;;;;;;;19.15;12.98;;;;;;;;;;5115395;28;20047;-46
2022/03/29 10:12:36;;;;;;;26.45;16.23;;;;;;;;;;5115259;28;20046;-46
2022/03/29 10:15:03;;;;;;;28.23;16.67;;;;;;;;;;5115198;28;20020;-46
2022/03/29 10:17:29;;;;;;;22.48;13.40;;;;;;;;;;5114961;28;20031;-47
2022/03/29 10:19:56;;;;;;;30.77;17.30;;;;;;;;;;5114942;28;20114;-46
2022/03/29 10:22:22;;;;;;;33.03;13.88;;;;;;;;;;5114962;28;20069;-47
2022/03/29 10:24:48;;;;;;;22.50;15.00;;;;;;;;;;5115301;28;20022;-46
2022/03/29 10:27:16;;;;;;;24.88;12.05;;;;;;;;;;5114957;28;20042;-46
2022/03/29 10:29:42;;;;;;;23.05;14.18;;;;;;;;;;5114979;28;20020;-47
2022/03/29 10:32:10;;;;;;;24.25;15.48;;;;;;;;;;5114680;28;20443;-46
2022/03/29 10:34:42;;;;;;;25.48;12.68;;;;;;;;;;5114715;28;20035;-50
2022/03/29 10:37:11;;;;;;;25.38;13.48;;;;;;;;;;5114949;28;20035;-47
2022/03/29 10:39:46;;;;;;;26.80;17.35;;;;;;;;;;5114833;28;20070;-46
2022/03/29 10:42:50;;;;;;;21.48;13.60;;;;;;;;;;5114927;28;20019;-46
2022/03/29 10:45:27;;;;;;;20.00;12.68;;;;;;;;;;5012629;28;20057;-51
2022/03/29 10:48:09;;;;;;;21.25;13.93;;;;;;;;;;4992442;28;20027;-46
2022/03/29 10:50:52;;;;;;;23.33;12.30;;;;;;;;;;5009092;28;20069;-47
2022/03/29 10:53:25;;;;;;;20.60;12.93;;;;;;;;;;5012045;28;20042;-50
2022/03/29 10:56:10;;;;;;;22.40;12.05;;;;;;;;;;5012274;28;20038;-47
2022/03/29 10:58:36;;;;;;;21.67;14.05;;;;;;;;;;5012054;28;20030;-47
2022/03/29 11:01:15;;;;;;;22.13;13.18;;;;;;;;;;5012030;28;20105;-46
2022/03/29 11:03:59;;;;;;;24.92;14.32;;;;;;;;;;5012020;28;20125;-46
2022/03/29 11:06:26;;;;;;;20.77;12.50;;;;;;;;;;5011941;28;20467;-46
2022/03/29 11:09:02;;;;;;;23.90;15.07;;;;;;;;;;5011908;28;20076;-46
2022/03/29 11:11:39;;;;;;;28.13;13.98;;;;;;;;;;5011919;28;20030;-48
2022/03/29 11:14:23;;;;;;;23.13;12.75;;;;;;;;;;5011886;28;20080;-47
2022/03/29 11:16:49;;;;;;;21.77;14.18;;;;;;;;;;5097174;28;20048;-47
2022/03/29 11:19:38;;;;;;;22.02;13.52;;;;;;;;;;5113894;28;20084;-49
2022/03/29 11:22:22;;;;;;;29.35;15.50;;;;;;;;;;5114026;28;20023;-47
2022/03/29 11:24:49;;;;;;;24.90;16.17;;;;;;;;;;5113840;28;20108;-46
2022/03/29 11:27:22;;;;;;;23.85;13.75;;;;;;;;;;5113804;28;20023;-46
2022/03/29 11:29:49;;;;;;;24.67;13.43;;;;;;;;;;5113827;28;20034;-50
2022/03/29 11:32:17;;;;;;;33.55;15.05;;;;;;;;;;5113942;28;20043;-46
2022/03/29 11:34:44;;;;;;;39.38;15.88;;;;;;;;;;5113768;28;20373;-45
2022/03/29 11:37:26;;;;;;;27.55;15.25;;;;;;;;;;5113985;28;20043;-46
2022/03/29 11:39:52;;;;;;;27.45;15.93;;;;;;;;;;5113666;28;20031;-47
2022/03/29 11:42:18;;;;;;;27.90;15.55;;;;;;;;;;5095286;28;20047;-48
2022/03/29 11:44:47;;;;;;;31.50;15.30;;;;;;;;;;5113720;28;20026;-46
2022/03/29 11:47:13;;;;;;;31.45;18.70;;;;;;;;;;5113634;28;20023;-46
2022/03/29 11:49:40;;;;;;;28.38;16.80;;;;;;;;;;5113540;28;20050;-46
2022/03/29 11:52:07;;;;;;;42.60;18.88;;;;;;;;;;5113496;28;20110;-46
2022/03/29 11:54:38;;;;;;;44.90;23.30;;;;;;;;;;5113747;28;20095;-45
2022/03/29 11:57:14;;;;;;;37.83;20.65;;;;;;;;;;5113506;28;20480;-47
2022/03/29 11:59:42;;;;;;;31.17;17.83;;;;;;;;;;5113651;28;20024;-45
2022/03/29 12:02:09;;;;;;;29.25;16.65;;;;;;;;;;5096443;28;20019;-47
2022/03/29 12:04:37;;;;;;;25.02;15.93;;;;;;;;;;5117679;28;20027;-52
2022/03/29 12:07:03;;;;;;;40.70;19.38;;;;;;;;;;5117536;28;20459;-49
2022/03/29 12:09:30;;;;;;;42.25;24.00;;;;;;;;;;5118019;28;20035;-47
2022/03/29 12:11:59;;;;;;;31.70;19.13;;;;;;;;;;5117891;28;20023;-49
2022/03/29 12:14:25;;;;;;;34.33;18.58;;;;;;;;;;5117844;28;20059;-47
2022/03/29 12:16:53;;;;;;;35.65;18.90;;;;;;;;;;5117436;28;20044;-47
2022/03/29 12:19:22;;;;;;;32.25;18.40;;;;;;;;;;5117631;28;20024;-47
2022/03/29 12:21:51;;;;;;;30.88;17.20;;;;;;;;;;5117260;28;20454;-52
2022/03/29 12:24:18;;;;;;;32.65;15.90;;;;;;;;;;5117216;28;20024;-47
2022/03/29 12:26:44;;;;;;;35.97;21.83;;;;;;;;;;5117263;28;20471;-47
2022/03/29 12:29:12;;;;;;;37.92;19.55;;;;;;;;;;5117273;28;20070;-46
2022/03/29 12:31:39;;;;;;;29.27;15.57;;;;;;;;;;5117188;28;20020;-48
2022/03/29 12:34:05;;;;;;;39.65;19.92;;;;;;;;;;5117250;28;20111;-47
2022/03/29 12:36:32;;;;;;;37.42;17.95;;;;;;;;;;5117099;28;20054;-46
2022/03/29 12:39:03;;;;;;;26.27;16.98;;;;;;;;;;5117392;28;20047;-45
2022/03/29 12:41:32;;;;;;;37.53;17.10;;;;;;;;;;5117107;28;20023;-46
2022/03/29 12:43:59;;;;;;;23.50;13.52;;;;;;;;;;5116960;28;20111;-47
2022/03/29 12:46:25;;;;;;;40.28;20.33;;;;;;;;;;5117082;28;20038;-47
2022/03/29 12:48:52;;;;;;;31.58;20.13;;;;;;;;;;5116741;28;20070;-48
2022/03/29 12:51:24;;;;;;;27.45;16.15;;;;;;;;;;5116778;28;20058;-47
2022/03/29 12:53:54;;;;;;;38.05;19.40;;;;;;;;;;5116993;28;20376;-45
2022/03/29 12:56:39;;;;;;;23.65;14.80;;;;;;;;;;5116759;28;20024;-46
2022/03/29 12:59:23;;;;;;;35.90;20.25;;;;;;;;;;5116774;28;20059;-47
2022/03/29 13:01:49;;;;;;;46.90;23.35;;;;;;;;;;5116820;28;20103;-46
2022/03/29 13:04:15;;;;;;;25.63;14.43;;;;;;;;;;5116468;28;20028;-47
2022/03/29 13:06:43;;;;;;;27.60;16.75;;;;;;;;;;5116730;28;20387;-45
2022/03/29 13:09:13;;;;;;;27.00;15.48;;;;;;;;;;5116492;28;20049;-45
2022/03/29 13:11:40;;;;;;;32.20;15.15;;;;;;;;;;5116542;28;20043;-45
2022/03/29 13:14:07;;;;;;;35.45;20.95;;;;;;;;;;5115803;28;20020;-48
2022/03/29 13:16:33;;;;;;;21.67;13.60;;;;;;;;;;5116313;28;20031;-46
2022/03/29 13:18:59;;;;;;;44.17;23.88;;;;;;;;;;5116665;28;20039;-46
2022/03/29 13:21:34;;;;;;;33.63;18.23;;;;;;;;;;5116208;28;20023;-45
2022/03/29 13:24:12;;;;;;;31.30;16.00;;;;;;;;;;5116551;28;20493;-48
2022/03/29 13:26:39;;;;;;;26.85;15.20;;;;;;;;;;5116048;28;20028;-45
2022/03/29 13:29:10;;;;;;;32.35;19.45;;;;;;;;;;5116352;28;20451;-46
2022/03/29 13:31:37;;;;;;;36.70;13.80;;;;;;;;;;5116311;28;20029;-45
2022/03/29 13:34:04;;;;;;;30.40;13.70;;;;;;;;;;5116186;28;20028;-48
2022/03/29 13:36:31;;;;;;;28.75;14.25;;;;;;;;;;5115852;28;20015;-48
2022/03/29 13:39:00;;;;;;;24.75;12.70;;;;;;;;;;5115990;28;20023;-46
2022/03/29 13:41:26;;;;;;;29.13;16.50;;;;;;;;;;5115894;28;20056;-49
2022/03/29 13:43:53;;;;;;;31.33;15.50;;;;;;;;;;5115806;28;20107;-47
2022/03/29 13:46:19;;;;;;;23.48;13.32;;;;;;;;;;5115864;28;20020;-47
2022/03/29 13:48:46;;;;;;;23.23;14.80;;;;;;;;;;5096790;28;20437;-45
2022/03/29 13:51:14;;;;;;;29.25;15.50;;;;;;;;;;5115969;28;20032;-46
2022/03/29 13:53:40;;;;;;;23.98;13.25;;;;;;;;;;5116233;28;20088;-45
2022/03/29 13:56:06;;;;;;;22.45;13.43;;;;;;;;;;5116171;28;20066;-47
2022/03/29 13:58:32;;;;;;;23.73;13.05;;;;;;;;;;5115631;28;20040;-45
2022/03/29 14:00:59;;;;;;;24.17;13.32;;;;;;;;;;5115710;28;20024;-44
2022/03/29 14:03:26;;;;;;;23.05;13.75;;;;;;;;;;5115576;28;20076;-45
2022/03/29 14:05:54;;;;;;;24.15;14.60;;;;;;;;;;5115763;28;20024;-46
2022/03/29 14:08:21;;;;;;;21.42;12.95;;;;;;;;;;5115293;28;20023;-45
2022/03/29 14:10:47;;;;;;;23.88;14.43;;;;;;;;;;5115741;28;20022;-45
2022/03/29 14:13:14;;;;;;;30.70;12.88;;;;;;;;;;5115385;28;20090;-46
2022/03/29 14:15:47;;;;;;;17.90;11.65;;;;;;;;;;5115191;28;20024;-45
2022/03/29 14:18:14;;;;;;;20.33;12.13;;;;;;;;;;5115061;28;20040;-48
2022/03/29 14:20:40;;;;;;;29.65;13.88;;;;;;;;;;5115032;28;20047;-46
2022/03/29 14:23:10;;;;;;;26.77;13.90;;;;;;;;;;5115166;28;20028;-48
2022/03/29 14:25:36;;;;;;;22.67;13.60;;;;;;;;;;5114034;28;20094;-54
2022/03/29 14:28:10;;;;;;;21.23;12.60;;;;;;;;;;5115234;28;20379;-55
2022/03/29 14:30:37;;;;;;;28.27;13.60;;;;;;;;;;5115053;28;20022;-45
2022/03/29 14:33:04;;;;;;;23.00;13.05;;;;;;;;;;5115081;28;20043;-45